KMTC/MTC METAR and TAF weather

Enter ICAO airport designator
Station Type Date Time Source
KMTC METAR 2022/05/26 05:43 UTC NOAA

KMTC 260543Z AUTO 15012KT 10SM CLR 16/16 A2993 RMK AO2 RAE43 SLP139


Station Type Date Time Source
KMTC Decoded METAR 2022/05/26 05:43 UTC NOAA

Selfridge Air National Guard Base, MI, United States (KMTC) 42-37N 082-50W
May 26, 2022 - 01:43 AM EDT / 2022.05.26 0543 UTC
Wind: from the SSE (150 degrees) at 14 MPH (12 KT):0
Visibility: 10 mile(s):0
Sky conditions: clear
Temperature: 60 F (16 C)
Dew Point: 60 F (16 C)
Relative Humidity: 100%
Pressure (altimeter): 29.93 in. Hg (1013 hPa)
ob: KMTC 260543Z AUTO 15012KT 10SM CLR 16/16 A2993 RMK AO2 RAE43 SLP139
cycle: 5

Station Type Date Time Source
KMTC TAF 2022/05/26 01:15 UTC NOAA

TAF KMTC 260100Z 2601/2707 12009KT 9999 FEW050 BKN150 OVC230 QNH2987INS
BECMG 2603/2604 13009KT 8000 -SHRA BKN025 OVC040 QNH2987INS
BECMG 2607/2608 19012KT 9999 NSW BKN015 OVC025 QNH2980INS
BECMG 2619/2620 19010G20KT 8000 -SHRA OVC020 QNH2974INS
BECMG 2702/2703 17009KT 8000 -SHRA OVC015 QNH2965INS TX25/2619Z TN16/2601Z LAST NO
AMDS AFT 2603 NEXT 2609

Example: see airport list